createdAt,value
2023-01-13T00:02:02.355Z,1.20
2023-01-13T00:04:34.118Z,1.40
2023-01-13T00:07:05.787Z,1.20
2023-01-13T00:09:37.643Z,1.20
2023-01-13T00:12:10.796Z,1.23
2023-01-13T00:14:42.665Z,1.08
2023-01-13T00:17:14.352Z,1.15
2023-01-13T00:19:48.948Z,1.30
2023-01-13T00:22:20.616Z,1.23
2023-01-13T00:24:52.334Z,1.52
2023-01-13T00:27:25.022Z,1.50
2023-01-13T00:29:56.719Z,1.10
2023-01-13T00:32:28.725Z,1.23
2023-01-13T00:35:00.465Z,1.30
2023-01-13T00:37:32.153Z,1.50
2023-01-13T00:40:07.720Z,1.33
2023-01-13T00:42:58.270Z,1.15
2023-01-13T00:45:29.959Z,1.17
2023-01-13T00:48:01.616Z,1.20
2023-01-13T00:50:33.334Z,1.00
2023-01-13T00:53:05.005Z,1.02
2023-01-13T00:55:36.720Z,1.50
2023-01-13T00:58:08.429Z,1.00
2023-01-13T01:00:40.188Z,1.08
2023-01-13T01:03:12.361Z,0.80
2023-01-13T01:05:44.098Z,1.10
2023-01-13T01:08:15.792Z,1.27
2023-01-13T01:10:47.592Z,1.10
2023-01-13T01:13:19.266Z,1.27
2023-01-13T01:15:50.997Z,0.80
2023-01-13T01:18:22.696Z,1.20
2023-01-13T01:20:54.412Z,0.90
2023-01-13T01:23:27.823Z,0.95
2023-01-13T01:26:04.255Z,0.90
2023-01-13T01:28:35.931Z,0.90
2023-01-13T01:31:17.220Z,1.02
2023-01-13T01:33:50.075Z,1.25
2023-01-13T01:36:26.274Z,0.95
2023-01-13T01:38:59.399Z,1.30
2023-01-13T01:41:35.194Z,0.80
2023-01-13T01:44:25.493Z,0.90
2023-01-13T01:47:00.607Z,0.80
2023-01-13T01:49:35.351Z,0.85
2023-01-13T01:54:54.020Z,1.10
2023-01-13T01:57:57.783Z,1.10
2023-01-13T02:00:29.959Z,1.40
2023-01-13T02:03:03.315Z,1.20
2023-01-13T02:05:35.647Z,1.30
2023-01-13T02:08:11.975Z,1.48
2023-01-13T02:10:47.165Z,1.33
2023-01-13T02:13:20.371Z,0.98
2023-01-13T02:16:01.662Z,0.90
2023-01-13T02:18:36.059Z,0.80
2023-01-13T02:21:33.523Z,0.98
2023-01-13T02:24:53.975Z,0.50
2023-01-13T02:27:51.671Z,0.80
2023-01-13T02:30:52.267Z,1.15
2023-01-13T02:33:47.464Z,0.90
2023-01-13T02:36:54.399Z,1.00
2023-01-13T02:39:50.600Z,0.85
2023-01-13T02:42:58.819Z,0.90
2023-01-13T02:46:06.268Z,0.70
2023-01-13T02:48:39.773Z,0.90
2023-01-13T02:51:19.010Z,1.00
2023-01-13T02:54:17.402Z,0.70
2023-01-13T02:56:53.427Z,0.90
2023-01-13T02:59:27.939Z,0.85
2023-01-13T03:02:01.180Z,0.90
2023-01-13T03:05:05.919Z,0.63
2023-01-13T03:08:08.617Z,0.70
2023-01-13T03:10:54.669Z,0.70
2023-01-13T03:13:54.004Z,0.73
2023-01-13T03:16:31.259Z,1.48
2023-01-13T03:19:05.501Z,0.80
2023-01-13T03:22:01.893Z,0.90
2023-01-13T03:24:39.069Z,1.48
2023-01-13T03:28:01.600Z,0.70
2023-01-13T03:30:42.090Z,0.82
2023-01-13T03:33:29.001Z,0.60
2023-01-13T03:36:06.182Z,0.90
2023-01-13T03:38:42.855Z,0.80
2023-01-13T03:41:34.017Z,0.75
2023-01-13T03:44:24.572Z,0.98
2023-01-13T03:47:01.287Z,0.80
2023-01-13T03:49:53.370Z,0.80
2023-01-13T03:52:30.484Z,0.80
2023-01-13T03:55:11.870Z,1.02
2023-01-13T03:58:16.308Z,0.90
2023-01-13T04:01:16.987Z,0.90
2023-01-13T04:04:01.503Z,0.98
2023-01-13T04:06:47.716Z,0.70
2023-01-13T04:09:36.794Z,0.73
2023-01-13T04:12:13.097Z,0.75
2023-01-13T04:14:46.277Z,1.02
2023-01-13T04:17:18.627Z,0.80
2023-01-13T04:19:50.313Z,0.70
2023-01-13T04:22:22.028Z,1.35
2023-01-13T04:24:53.711Z,0.68
2023-01-13T04:27:25.433Z,0.70
2023-01-13T04:29:57.091Z,0.60
2023-01-13T04:32:28.893Z,0.82
2023-01-13T04:35:00.567Z,0.98
2023-01-13T04:37:32.228Z,0.88
2023-01-13T04:40:04.473Z,0.75
2023-01-13T04:42:36.270Z,1.10
2023-01-13T04:45:09.320Z,0.80
2023-01-13T04:47:42.015Z,0.85
2023-01-13T04:50:14.164Z,1.17
2023-01-13T04:52:47.264Z,0.85
2023-01-13T04:55:21.075Z,0.85
2023-01-13T04:57:53.015Z,0.90
2023-01-13T05:00:24.674Z,0.73
2023-01-13T05:02:56.463Z,0.90
2023-01-13T05:05:29.961Z,0.80
2023-01-13T05:08:02.081Z,0.70
2023-01-13T05:10:33.885Z,0.90
2023-01-13T05:13:24.395Z,1.00
2023-01-13T05:16:06.718Z,0.73
2023-01-13T05:18:38.564Z,0.90
2023-01-13T05:21:30.233Z,0.80
2023-01-13T05:24:20.493Z,1.00
2023-01-13T05:26:52.233Z,0.90
2023-01-13T05:29:23.955Z,0.80
2023-01-13T05:31:55.611Z,0.80
2023-01-13T05:34:27.404Z,0.77
2023-01-13T05:36:59.097Z,0.70
2023-01-13T05:39:50.699Z,0.88
2023-01-13T05:42:41.060Z,1.58
2023-01-13T05:45:12.921Z,0.88
2023-01-13T05:47:44.639Z,1.00
2023-01-13T05:50:17.041Z,1.20
2023-01-13T05:52:48.688Z,0.73
2023-01-13T05:55:20.407Z,1.13
2023-01-13T05:57:52.090Z,0.70
2023-01-13T06:00:23.921Z,0.95
2023-01-13T06:02:55.645Z,0.80
2023-01-13T06:05:28.458Z,1.20
2023-01-13T06:08:02.730Z,1.00
2023-01-13T06:10:35.213Z,1.25
2023-01-13T06:13:06.914Z,1.08
2023-01-13T06:15:38.710Z,1.05
2023-01-13T06:18:10.499Z,1.20
2023-01-13T06:20:42.271Z,1.23
2023-01-13T06:23:14.249Z,0.95
2023-01-13T06:26:09.876Z,0.90
2023-01-13T06:28:43.996Z,1.15
2023-01-13T06:31:18.247Z,1.15
2023-01-13T06:33:56.185Z,0.90
2023-01-13T06:36:40.321Z,1.15
2023-01-13T06:39:17.702Z,1.10
2023-01-13T06:42:12.159Z,1.10
2023-01-13T06:44:45.572Z,1.13
2023-01-13T06:47:17.918Z,1.00
2023-01-13T06:49:50.881Z,1.10
2023-01-13T06:52:23.586Z,1.73
2023-01-13T06:54:55.245Z,1.08
2023-01-13T06:57:26.894Z,2.80
2023-01-13T06:59:58.575Z,1.17
2023-01-13T07:02:30.408Z,1.27
2023-01-13T07:05:02.124Z,1.10
2023-01-13T07:07:33.883Z,1.05
2023-01-13T07:10:09.689Z,1.10
2023-01-13T07:13:00.086Z,1.10
2023-01-13T07:15:31.979Z,1.02
2023-01-13T07:18:06.513Z,1.20
2023-01-13T07:20:38.176Z,1.15
2023-01-13T07:23:09.858Z,1.15
2023-01-13T07:25:41.526Z,1.20
2023-01-13T07:28:13.281Z,1.10
2023-01-13T07:30:44.989Z,1.15
2023-01-13T07:33:18.489Z,1.10
2023-01-13T07:35:57.549Z,1.13
2023-01-13T07:38:30.640Z,1.00
2023-01-13T07:41:21.098Z,1.10
2023-01-13T07:43:52.910Z,1.00
2023-01-13T07:46:24.557Z,1.60
2023-01-13T07:48:56.265Z,1.38
2023-01-13T07:51:27.945Z,1.00
2023-01-13T07:53:59.631Z,1.70
2023-01-13T07:56:31.673Z,1.20
2023-01-13T07:59:03.916Z,1.13
2023-01-13T08:01:35.676Z,1.33
2023-01-13T08:04:10.004Z,1.00
2023-01-13T08:06:42.079Z,1.02
2023-01-13T08:09:13.906Z,0.95
2023-01-13T08:12:05.528Z,1.00
2023-01-13T08:14:37.255Z,0.80
2023-01-13T08:17:12.325Z,1.10
2023-01-13T08:19:44.031Z,1.00
2023-01-13T08:22:16.064Z,1.00
2023-01-13T08:24:47.804Z,0.88
2023-01-13T08:27:20.503Z,1.00
2023-01-13T08:29:52.372Z,0.88
2023-01-13T08:32:24.026Z,0.80
2023-01-13T08:34:55.754Z,1.08
2023-01-13T08:37:27.449Z,0.80
2023-01-13T08:39:59.567Z,1.33
2023-01-13T08:42:34.121Z,1.00
2023-01-13T08:45:07.450Z,0.90
2023-01-13T08:47:39.100Z,0.90
2023-01-13T08:50:13.039Z,0.82
2023-01-13T08:52:45.169Z,1.00
2023-01-13T08:55:16.951Z,1.00
2023-01-13T08:57:48.773Z,1.30
2023-01-13T09:00:21.049Z,1.13
2023-01-13T09:02:52.755Z,1.00
2023-01-13T09:05:24.724Z,0.60
2023-01-13T09:07:56.648Z,1.35
2023-01-13T09:10:28.453Z,1.23
2023-01-13T09:13:12.156Z,1.10
2023-01-13T09:15:45.919Z,1.00
2023-01-13T09:18:17.724Z,1.60
2023-01-13T09:20:49.407Z,1.00
2023-01-13T09:23:21.090Z,0.95
2023-01-13T09:25:52.999Z,1.30
2023-01-13T09:28:24.654Z,1.55
2023-01-13T09:31:01.138Z,1.10
2023-01-13T09:33:51.682Z,0.88
2023-01-13T09:36:23.374Z,1.23
2023-01-13T09:38:55.047Z,1.15
2023-01-13T09:41:47.848Z,0.80
2023-01-13T09:44:57.517Z,1.25
2023-01-13T09:47:45.796Z,0.90
2023-01-13T09:50:41.226Z,1.25
2023-01-13T09:55:49.658Z,0.90
2023-01-13T09:58:21.584Z,0.82
2023-01-13T10:00:56.008Z,1.10
2023-01-13T10:03:30.276Z,1.00
2023-01-13T10:06:04.577Z,1.05
2023-01-13T10:08:41.438Z,1.58
2023-01-13T10:11:40.651Z,0.80
2023-01-13T10:14:23.169Z,1.20
2023-01-13T10:17:07.698Z,0.85
2023-01-13T10:19:51.114Z,1.50
2023-01-13T10:22:40.224Z,1.60
2023-01-13T10:25:34.623Z,0.90
2023-01-13T10:28:14.342Z,1.20
2023-01-13T10:30:47.714Z,1.00
2023-01-13T10:33:25.779Z,0.90
2023-01-13T10:36:12.681Z,0.85
2023-01-13T10:44:00.842Z,0.95
2023-01-13T10:46:35.774Z,1.10
2023-01-13T10:49:27.838Z,1.08
2023-01-13T10:52:01.933Z,0.85
2023-01-13T10:54:35.761Z,0.80
2023-01-13T10:57:36.270Z,0.93
2023-01-13T11:00:30.069Z,0.73
2023-01-13T11:03:35.720Z,0.90
2023-01-13T11:06:08.825Z,0.98
2023-01-13T11:08:45.873Z,0.73
2023-01-13T11:11:39.349Z,0.95
2023-01-13T11:14:41.943Z,0.98
2023-01-13T11:17:32.312Z,1.35
2023-01-13T11:20:29.698Z,1.20
2023-01-13T11:23:08.251Z,1.00
2023-01-13T11:25:44.674Z,0.93
2023-01-13T11:28:51.338Z,1.35
2023-01-13T11:31:30.210Z,1.00
2023-01-13T11:34:35.880Z,0.70
2023-01-13T11:37:17.975Z,0.80
2023-01-13T11:39:58.088Z,0.90
2023-01-13T11:42:43.367Z,1.40
2023-01-13T11:45:16.935Z,0.90
2023-01-13T11:47:52.369Z,1.00
2023-01-13T11:50:27.320Z,1.05
2023-01-13T11:53:30.296Z,1.20
2023-01-13T11:56:25.060Z,1.00
2023-01-13T11:58:56.716Z,0.95
2023-01-13T12:01:43.581Z,1.00
2023-01-13T12:04:27.724Z,1.10
2023-01-13T12:07:12.764Z,0.70
2023-01-13T12:13:17.397Z,1.10
2023-01-13T12:16:07.025Z,1.17
2023-01-13T12:18:56.724Z,1.10
2023-01-13T12:21:34.032Z,1.05
2023-01-13T12:24:24.101Z,1.55
2023-01-13T12:27:01.753Z,1.02
2023-01-13T12:29:35.624Z,1.20
2023-01-13T12:32:14.391Z,1.10
2023-01-13T12:35:06.219Z,1.42
2023-01-13T12:37:50.049Z,1.10
2023-01-13T12:40:40.156Z,1.38
2023-01-13T12:43:39.000Z,1.05
2023-01-13T12:46:19.597Z,1.00
2023-01-13T12:48:56.251Z,1.00
2023-01-13T12:51:33.300Z,0.98
2023-01-13T12:54:29.972Z,0.80
2023-01-13T12:57:01.904Z,0.95
2023-01-13T12:59:35.736Z,0.95
2023-01-13T13:02:10.567Z,0.90
2023-01-13T13:04:55.219Z,1.20
2023-01-13T13:07:29.812Z,1.58
2023-01-13T13:10:10.834Z,1.30
2023-01-13T13:13:00.924Z,1.08
2023-01-13T13:15:35.490Z,1.02
2023-01-13T13:18:23.809Z,1.35
2023-01-13T13:21:05.214Z,0.82
2023-01-13T13:23:39.346Z,1.13
2023-01-13T13:26:17.013Z,1.00
2023-01-13T13:29:12.837Z,1.05
2023-01-13T13:31:55.275Z,1.30
2023-01-13T13:34:45.146Z,1.95
2023-01-13T13:38:12.179Z,0.88
2023-01-13T13:41:05.959Z,0.80
2023-01-13T13:44:01.199Z,0.90
2023-01-13T13:46:46.913Z,0.77
2023-01-13T13:49:21.274Z,0.85
2023-01-13T13:52:04.412Z,1.10
2023-01-13T13:54:39.511Z,0.90
2023-01-13T13:57:24.666Z,1.00
2023-01-13T14:02:34.570Z,0.95
2023-01-13T14:05:30.874Z,1.10
2023-01-13T14:08:15.465Z,1.02
2023-01-13T14:10:47.338Z,1.00
2023-01-13T14:13:20.650Z,2.33
2023-01-13T14:16:06.611Z,0.70
2023-01-13T14:18:51.233Z,1.13
2023-01-13T14:21:28.622Z,1.35
2023-01-13T14:24:15.144Z,0.98
2023-01-13T14:26:51.858Z,1.25
2023-01-13T14:29:24.461Z,1.20
2023-01-13T14:31:56.150Z,1.20
2023-01-13T14:34:32.686Z,1.20
2023-01-13T14:37:23.177Z,1.05
2023-01-13T14:39:55.451Z,0.80
2023-01-13T14:42:28.643Z,0.90
2023-01-13T14:45:00.817Z,0.93
2023-01-13T14:47:34.080Z,1.08
2023-01-13T14:50:07.595Z,1.00
2023-01-13T14:52:55.649Z,1.10
2023-01-13T14:55:38.579Z,1.10
2023-01-13T14:58:24.379Z,2.00
2023-01-13T15:01:36.423Z,1.00
2023-01-13T15:04:26.187Z,0.93
2023-01-13T15:06:59.611Z,1.35
2023-01-13T15:09:42.291Z,1.25
2023-01-13T15:12:37.875Z,1.20
2023-01-13T15:15:19.280Z,1.58
2023-01-13T15:17:51.784Z,1.10
2023-01-13T15:20:24.926Z,1.58
2023-01-13T15:22:59.657Z,1.20
2023-01-13T15:28:15.702Z,1.30
2023-01-13T15:30:49.288Z,1.48
2023-01-13T15:33:22.237Z,1.42
2023-01-13T15:35:54.714Z,1.70
2023-01-13T15:38:26.501Z,1.90
2023-01-13T15:40:58.348Z,1.90
2023-01-13T15:43:48.523Z,2.08
2023-01-13T15:46:38.467Z,2.00
2023-01-13T15:49:35.159Z,1.77
2023-01-13T15:52:25.202Z,1.60
2023-01-13T15:54:57.106Z,1.55
2023-01-13T15:57:30.902Z,1.63
2023-01-13T16:00:08.248Z,1.93
2023-01-13T16:02:39.973Z,1.65
2023-01-13T16:05:12.426Z,1.80
2023-01-13T16:07:44.114Z,1.83
2023-01-13T16:10:17.338Z,1.92
2023-01-13T16:12:49.411Z,1.60
2023-01-13T16:15:25.945Z,1.55
2023-01-13T16:18:00.039Z,1.40
2023-01-13T16:20:31.886Z,1.45
2023-01-13T16:23:03.759Z,1.33
2023-01-13T16:25:36.560Z,1.80
2023-01-13T16:28:21.982Z,1.60
2023-01-13T16:30:54.307Z,1.67
2023-01-13T16:33:28.881Z,1.50
2023-01-13T16:36:10.638Z,1.85
2023-01-13T16:38:48.131Z,1.73
2023-01-13T16:41:20.919Z,1.85
2023-01-13T16:43:52.929Z,2.30
2023-01-13T16:46:27.101Z,3.60
2023-01-13T16:49:04.727Z,3.47
2023-01-13T16:51:36.581Z,2.50
2023-01-13T16:54:08.317Z,1.80
2023-01-13T16:56:40.080Z,2.80
2023-01-13T16:59:14.949Z,2.15
2023-01-13T17:01:50.376Z,2.63
2023-01-13T17:04:23.499Z,2.10
2023-01-13T17:07:03.469Z,2.45
2023-01-13T17:09:35.200Z,1.95
2023-01-13T17:12:06.960Z,1.88
2023-01-13T17:14:43.436Z,1.83
2023-01-13T17:17:26.145Z,3.30
2023-01-13T17:19:57.801Z,2.50
2023-01-13T17:22:32.395Z,2.25
2023-01-13T17:25:04.593Z,1.92
2023-01-13T17:27:36.392Z,2.53
2023-01-13T17:30:09.842Z,2.08
2023-01-13T17:32:41.999Z,2.00
2023-01-13T17:35:18.855Z,2.22
2023-01-13T17:37:54.316Z,2.60
2023-01-13T17:40:26.055Z,2.08
2023-01-13T17:42:57.802Z,2.30
2023-01-13T17:45:29.961Z,2.20
2023-01-13T17:48:01.879Z,2.40
2023-01-13T17:50:34.455Z,2.40
2023-01-13T17:53:06.142Z,2.60
2023-01-13T17:55:37.842Z,2.05
2023-01-13T17:58:09.565Z,2.20
2023-01-13T18:00:41.753Z,1.60
2023-01-13T18:03:17.380Z,1.70
2023-01-13T18:05:49.440Z,1.80
2023-01-13T18:08:23.625Z,1.70
2023-01-13T18:10:57.845Z,1.30
2023-01-13T18:13:31.479Z,3.10
2023-01-13T18:16:08.518Z,1.83
2023-01-13T18:18:42.249Z,1.73
2023-01-13T18:21:43.512Z,1.63
2023-01-13T18:24:35.291Z,1.38
2023-01-13T18:27:23.928Z,2.03
2023-01-13T18:29:58.491Z,1.85
2023-01-13T18:32:33.409Z,1.60
2023-01-13T18:35:10.210Z,1.70
2023-01-13T18:37:45.096Z,1.70
2023-01-13T18:40:16.905Z,1.63
2023-01-13T18:42:51.284Z,1.70
2023-01-13T18:45:30.221Z,1.58
2023-01-13T18:48:04.175Z,1.90
2023-01-13T18:50:35.957Z,2.00
2023-01-13T18:53:08.090Z,1.50
2023-01-13T18:55:39.944Z,1.58
2023-01-13T18:58:12.064Z,1.70
2023-01-13T19:00:44.182Z,2.00
2023-01-13T19:03:29.520Z,1.75
2023-01-13T19:06:04.751Z,2.00
2023-01-13T19:08:36.702Z,1.83
2023-01-13T19:11:08.391Z,2.00
2023-01-13T19:13:40.032Z,2.88
2023-01-13T19:16:11.806Z,2.28
2023-01-13T19:18:43.955Z,2.65
2023-01-13T19:21:16.123Z,3.35
2023-01-13T19:23:47.775Z,2.80
2023-01-13T19:26:19.844Z,3.33
2023-01-13T19:28:51.625Z,2.20
2023-01-13T19:31:23.339Z,2.90
2023-01-13T19:33:55.255Z,2.55
2023-01-13T19:36:27.078Z,2.40
2023-01-13T19:38:59.145Z,2.65
2023-01-13T19:41:49.108Z,2.42
2023-01-13T19:44:39.345Z,2.17
2023-01-13T19:47:11.056Z,2.15
2023-01-13T19:49:43.091Z,2.40
2023-01-13T19:52:15.027Z,2.08
2023-01-13T19:54:47.239Z,2.92
2023-01-13T19:57:20.314Z,2.80
2023-01-13T19:59:52.385Z,2.75
2023-01-13T20:02:31.716Z,2.88
2023-01-13T20:05:06.587Z,2.70
2023-01-13T20:07:38.509Z,2.78
2023-01-13T20:10:10.469Z,3.10
2023-01-13T20:12:42.737Z,2.40
2023-01-13T20:15:14.801Z,2.35
2023-01-13T20:17:46.448Z,2.55
2023-01-13T20:20:20.403Z,2.50
2023-01-13T20:22:52.230Z,2.60
2023-01-13T20:25:24.147Z,2.65
2023-01-13T20:27:56.573Z,2.72
2023-01-13T20:30:31.388Z,2.40
2023-01-13T20:35:34.797Z,2.40
2023-01-13T20:38:06.524Z,2.78
2023-01-13T20:40:38.164Z,2.42
2023-01-13T20:43:10.357Z,2.72
2023-01-13T20:45:42.065Z,2.67
2023-01-13T20:48:13.762Z,2.20
2023-01-13T20:50:45.737Z,2.17
2023-01-13T20:53:17.410Z,2.30
2023-01-13T20:55:49.143Z,2.05
2023-01-13T20:58:20.810Z,2.53
2023-01-13T21:00:58.110Z,2.20
2023-01-13T21:03:29.916Z,2.60
2023-01-13T21:06:01.695Z,2.47
2023-01-13T21:08:33.498Z,2.20
2023-01-13T21:11:06.043Z,2.60
2023-01-13T21:13:56.435Z,2.38
2023-01-13T21:16:28.320Z,2.70
2023-01-13T21:19:10.643Z,2.55
2023-01-13T21:21:42.478Z,2.42
2023-01-13T21:24:14.222Z,2.67
2023-01-13T21:26:46.430Z,3.05
2023-01-13T21:29:18.149Z,2.70
2023-01-13T21:31:49.887Z,2.10
2023-01-13T21:34:21.593Z,2.50
2023-01-13T21:36:53.254Z,2.42
2023-01-13T21:39:25.382Z,2.22
2023-01-13T21:42:15.680Z,2.10
2023-01-13T21:45:06.071Z,2.17
2023-01-13T21:47:50.394Z,2.00
2023-01-13T21:50:27.974Z,2.40
2023-01-13T21:52:59.714Z,2.10
2023-01-13T21:55:32.438Z,2.33
2023-01-13T21:58:13.049Z,2.00
2023-01-13T22:00:44.946Z,2.42
2023-01-13T22:03:18.564Z,2.08
2023-01-13T22:05:55.972Z,2.00
2023-01-13T22:08:29.166Z,2.10
2023-01-13T22:11:02.755Z,1.92
2023-01-13T22:13:52.979Z,2.03
2023-01-13T22:16:24.881Z,2.60
2023-01-13T22:18:56.531Z,1.67
2023-01-13T22:21:28.197Z,2.78
2023-01-13T22:24:00.232Z,1.90
2023-01-13T22:26:34.824Z,2.15
2023-01-13T22:29:06.500Z,2.20
2023-01-13T22:31:38.299Z,1.90
2023-01-13T22:34:12.344Z,2.13
2023-01-13T22:36:44.099Z,1.90
2023-01-13T22:39:15.800Z,2.30
2023-01-13T22:41:47.528Z,2.67
2023-01-13T22:44:20.270Z,2.08
2023-01-13T22:46:52.362Z,1.83
2023-01-13T22:49:24.146Z,2.25
2023-01-13T22:51:55.839Z,1.80
2023-01-13T22:54:27.522Z,2.22
2023-01-13T22:56:59.320Z,2.42
2023-01-13T22:59:31.896Z,1.80
2023-01-13T23:02:03.721Z,1.95
2023-01-13T23:04:35.482Z,2.03
2023-01-13T23:07:07.204Z,1.90
2023-01-13T23:09:38.885Z,3.45
2023-01-13T23:12:10.568Z,2.13
2023-01-13T23:14:42.278Z,2.00
2023-01-13T23:17:13.914Z,1.95
2023-01-13T23:19:45.569Z,2.10
2023-01-13T23:22:17.212Z,2.17
2023-01-13T23:24:48.980Z,1.98
2023-01-13T23:27:20.692Z,1.80
2023-01-13T23:29:52.351Z,2.08
2023-01-13T23:32:24.019Z,2.03
2023-01-13T23:34:55.696Z,2.00
2023-01-13T23:37:27.514Z,2.10
2023-01-13T23:39:59.148Z,2.03
2023-01-13T23:42:30.981Z,3.03
2023-01-13T23:45:02.913Z,1.40
2023-01-13T23:47:34.850Z,1.70
2023-01-13T23:50:06.793Z,1.50
2023-01-13T23:52:38.458Z,2.50
2023-01-13T23:55:10.236Z,1.83
2023-01-13T23:57:42.741Z,1.92
